sensor_id;sensor_type;location;lat;lon;timestamp;P1;durP1;ratioP1;P2;durP2;ratioP2
18316;SDS011;9284;52.298;21.164;2023-12-20T00:01:23;29.20;;;16.13;;
18316;SDS011;9284;52.298;21.164;2023-12-20T00:03:52;33.47;;;17.73;;
18316;SDS011;9284;52.298;21.164;2023-12-20T00:06:20;28.75;;;15.95;;
18316;SDS011;9284;52.298;21.164;2023-12-20T00:08:50;29.73;;;15.77;;
18316;SDS011;9284;52.298;21.164;2023-12-20T00:11:18;33.17;;;16.00;;
18316;SDS011;9284;52.298;21.164;2023-12-20T00:13:46;34.67;;;17.77;;
18316;SDS011;9284;52.298;21.164;2023-12-20T00:16:17;35.78;;;17.48;;
18316;SDS011;9284;52.298;21.164;2023-12-20T00:18:46;33.70;;;16.85;;
18316;SDS011;9284;52.298;21.164;2023-12-20T00:21:14;30.73;;;16.58;;
18316;SDS011;9284;52.298;21.164;2023-12-20T00:23:43;31.50;;;17.05;;
18316;SDS011;9284;52.298;21.164;2023-12-20T00:26:12;28.73;;;15.77;;
18316;SDS011;9284;52.298;21.164;2023-12-20T00:28:40;30.20;;;15.35;;
18316;SDS011;9284;52.298;21.164;2023-12-20T00:31:09;29.85;;;15.65;;
18316;SDS011;9284;52.298;21.164;2023-12-20T00:33:38;27.50;;;15.25;;
18316;SDS011;9284;52.298;21.164;2023-12-20T00:36:10;25.67;;;14.30;;
18316;SDS011;9284;52.298;21.164;2023-12-20T00:38:38;31.15;;;15.68;;
18316;SDS011;9284;52.298;21.164;2023-12-20T00:41:06;30.42;;;15.63;;
18316;SDS011;9284;52.298;21.164;2023-12-20T00:43:36;30.35;;;15.20;;
18316;SDS011;9284;52.298;21.164;2023-12-20T00:46:04;28.02;;;15.85;;
18316;SDS011;9284;52.298;21.164;2023-12-20T00:48:33;27.85;;;14.90;;
18316;SDS011;9284;52.298;21.164;2023-12-20T00:51:01;29.30;;;15.00;;
18316;SDS011;9284;52.298;21.164;2023-12-20T00:53:30;29.65;;;15.50;;
18316;SDS011;9284;52.298;21.164;2023-12-20T00:55:58;27.33;;;14.82;;
18316;SDS011;9284;52.298;21.164;2023-12-20T00:58:26;26.77;;;15.02;;
18316;SDS011;9284;52.298;21.164;2023-12-20T01:00:56;26.05;;;14.35;;
18316;SDS011;9284;52.298;21.164;2023-12-20T01:03:25;25.33;;;14.82;;
18316;SDS011;9284;52.298;21.164;2023-12-20T01:05:54;26.83;;;14.68;;
18316;SDS011;9284;52.298;21.164;2023-12-20T01:08:22;27.25;;;14.82;;
18316;SDS011;9284;52.298;21.164;2023-12-20T01:10:50;29.23;;;15.57;;
18316;SDS011;9284;52.298;21.164;2023-12-20T01:13:19;28.65;;;15.40;;
18316;SDS011;9284;52.298;21.164;2023-12-20T01:15:47;30.27;;;15.15;;
18316;SDS011;9284;52.298;21.164;2023-12-20T01:18:17;26.48;;;14.98;;
18316;SDS011;9284;52.298;21.164;2023-12-20T01:20:45;29.10;;;15.63;;
18316;SDS011;9284;52.298;21.164;2023-12-20T01:23:14;27.88;;;15.20;;
18316;SDS011;9284;52.298;21.164;2023-12-20T01:25:42;28.30;;;15.30;;
18316;SDS011;9284;52.298;21.164;2023-12-20T01:28:10;23.10;;;14.70;;
18316;SDS011;9284;52.298;21.164;2023-12-20T01:30:38;25.38;;;14.40;;
18316;SDS011;9284;52.298;21.164;2023-12-20T01:33:07;30.17;;;15.70;;
18316;SDS011;9284;52.298;21.164;2023-12-20T01:35:37;27.63;;;15.40;;
18316;SDS011;9284;52.298;21.164;2023-12-20T01:38:05;28.58;;;16.13;;
18316;SDS011;9284;52.298;21.164;2023-12-20T01:40:33;24.67;;;14.75;;
18316;SDS011;9284;52.298;21.164;2023-12-20T01:43:02;25.13;;;15.25;;
18316;SDS011;9284;52.298;21.164;2023-12-20T01:45:35;26.50;;;14.65;;
18316;SDS011;9284;52.298;21.164;2023-12-20T01:48:03;26.52;;;15.07;;
18316;SDS011;9284;52.298;21.164;2023-12-20T01:50:34;25.08;;;14.57;;
18316;SDS011;9284;52.298;21.164;2023-12-20T01:53:05;23.63;;;13.90;;
18316;SDS011;9284;52.298;21.164;2023-12-20T01:55:36;23.02;;;13.57;;
18316;SDS011;9284;52.298;21.164;2023-12-20T01:58:07;25.95;;;14.93;;
18316;SDS011;9284;52.298;21.164;2023-12-20T02:00:37;25.92;;;14.63;;
18316;SDS011;9284;52.298;21.164;2023-12-20T02:03:06;24.05;;;13.77;;
18316;SDS011;9284;52.298;21.164;2023-12-20T02:05:35;28.30;;;14.82;;
18316;SDS011;9284;52.298;21.164;2023-12-20T02:08:05;25.52;;;14.73;;
18316;SDS011;9284;52.298;21.164;2023-12-20T02:10:34;24.52;;;14.20;;
18316;SDS011;9284;52.298;21.164;2023-12-20T02:13:03;25.75;;;14.60;;
18316;SDS011;9284;52.298;21.164;2023-12-20T02:15:31;24.83;;;13.88;;
18316;SDS011;9284;52.298;21.164;2023-12-20T02:18:00;24.77;;;13.45;;
18316;SDS011;9284;52.298;21.164;2023-12-20T02:20:28;25.85;;;14.38;;
18316;SDS011;9284;52.298;21.164;2023-12-20T02:22:58;25.58;;;14.38;;
18316;SDS011;9284;52.298;21.164;2023-12-20T02:25:26;25.63;;;14.25;;
18316;SDS011;9284;52.298;21.164;2023-12-20T02:27:54;25.83;;;13.73;;
18316;SDS011;9284;52.298;21.164;2023-12-20T02:30:23;24.85;;;13.82;;
18316;SDS011;9284;52.298;21.164;2023-12-20T02:32:51;23.67;;;14.38;;
18316;SDS011;9284;52.298;21.164;2023-12-20T02:35:21;24.25;;;13.68;;
18316;SDS011;9284;52.298;21.164;2023-12-20T02:37:49;22.15;;;13.82;;
18316;SDS011;9284;52.298;21.164;2023-12-20T02:40:19;23.65;;;12.52;;
18316;SDS011;9284;52.298;21.164;2023-12-20T02:42:47;23.75;;;14.13;;
18316;SDS011;9284;52.298;21.164;2023-12-20T02:45:16;23.05;;;13.15;;
18316;SDS011;9284;52.298;21.164;2023-12-20T02:47:44;23.42;;;13.07;;
18316;SDS011;9284;52.298;21.164;2023-12-20T02:50:13;20.10;;;12.73;;
18316;SDS011;9284;52.298;21.164;2023-12-20T02:52:42;23.35;;;12.75;;
18316;SDS011;9284;52.298;21.164;2023-12-20T02:55:11;24.13;;;12.10;;
18316;SDS011;9284;52.298;21.164;2023-12-20T02:57:40;22.95;;;12.25;;
18316;SDS011;9284;52.298;21.164;2023-12-20T03:00:10;19.95;;;11.73;;
18316;SDS011;9284;52.298;21.164;2023-12-20T03:02:38;20.13;;;11.35;;
18316;SDS011;9284;52.298;21.164;2023-12-20T03:05:07;23.88;;;11.75;;
18316;SDS011;9284;52.298;21.164;2023-12-20T03:07:36;19.30;;;10.52;;
18316;SDS011;9284;52.298;21.164;2023-12-20T03:10:05;19.75;;;10.63;;
18316;SDS011;9284;52.298;21.164;2023-12-20T03:12:47;19.23;;;11.43;;
18316;SDS011;9284;52.298;21.164;2023-12-20T03:15:17;19.50;;;10.40;;
18316;SDS011;9284;52.298;21.164;2023-12-20T03:17:45;20.75;;;10.93;;
18316;SDS011;9284;52.298;21.164;2023-12-20T03:20:14;20.13;;;10.70;;
18316;SDS011;9284;52.298;21.164;2023-12-20T03:22:42;18.20;;;10.70;;
18316;SDS011;9284;52.298;21.164;2023-12-20T03:25:11;18.67;;;10.15;;
18316;SDS011;9284;52.298;21.164;2023-12-20T03:27:39;27.20;;;14.55;;
18316;SDS011;9284;52.298;21.164;2023-12-20T03:30:09;26.90;;;14.20;;
18316;SDS011;9284;52.298;21.164;2023-12-20T03:32:38;24.85;;;14.73;;
18316;SDS011;9284;52.298;21.164;2023-12-20T03:35:06;23.90;;;13.77;;
18316;SDS011;9284;52.298;21.164;2023-12-20T03:37:35;21.23;;;13.32;;
18316;SDS011;9284;52.298;21.164;2023-12-20T03:40:04;20.88;;;12.23;;
18316;SDS011;9284;52.298;21.164;2023-12-20T03:42:33;19.15;;;10.98;;
18316;SDS011;9284;52.298;21.164;2023-12-20T03:45:01;23.02;;;12.00;;
18316;SDS011;9284;52.298;21.164;2023-12-20T03:47:31;21.90;;;12.10;;
18316;SDS011;9284;52.298;21.164;2023-12-20T03:49:59;23.95;;;13.18;;
18316;SDS011;9284;52.298;21.164;2023-12-20T03:52:27;22.02;;;12.65;;
18316;SDS011;9284;52.298;21.164;2023-12-20T03:54:55;25.17;;;12.75;;
18316;SDS011;9284;52.298;21.164;2023-12-20T03:57:24;26.73;;;13.52;;
18316;SDS011;9284;52.298;21.164;2023-12-20T03:59:52;26.08;;;14.40;;
18316;SDS011;9284;52.298;21.164;2023-12-20T04:02:20;27.98;;;15.55;;
18316;SDS011;9284;52.298;21.164;2023-12-20T04:04:50;25.85;;;15.10;;
18316;SDS011;9284;52.298;21.164;2023-12-20T04:07:19;23.23;;;13.40;;
18316;SDS011;9284;52.298;21.164;2023-12-20T04:09:48;19.50;;;11.55;;
18316;SDS011;9284;52.298;21.164;2023-12-20T04:12:16;18.58;;;10.88;;
18316;SDS011;9284;52.298;21.164;2023-12-20T04:14:44;15.45;;;10.48;;
18316;SDS011;9284;52.298;21.164;2023-12-20T04:17:13;19.70;;;11.00;;
18316;SDS011;9284;52.298;21.164;2023-12-20T04:19:42;19.05;;;11.00;;
18316;SDS011;9284;52.298;21.164;2023-12-20T04:22:12;17.67;;;9.85;;
18316;SDS011;9284;52.298;21.164;2023-12-20T04:24:40;20.25;;;11.90;;
18316;SDS011;9284;52.298;21.164;2023-12-20T04:27:09;21.80;;;11.70;;
18316;SDS011;9284;52.298;21.164;2023-12-20T04:29:38;19.92;;;11.63;;
18316;SDS011;9284;52.298;21.164;2023-12-20T04:32:06;19.33;;;11.40;;
18316;SDS011;9284;52.298;21.164;2023-12-20T04:34:34;19.60;;;11.25;;
18316;SDS011;9284;52.298;21.164;2023-12-20T04:37:03;21.63;;;11.50;;
18316;SDS011;9284;52.298;21.164;2023-12-20T04:39:33;18.70;;;11.27;;
18316;SDS011;9284;52.298;21.164;2023-12-20T04:42:02;22.38;;;12.20;;
18316;SDS011;9284;52.298;21.164;2023-12-20T04:44:30;20.75;;;11.38;;
18316;SDS011;9284;52.298;21.164;2023-12-20T04:46:58;21.23;;;11.57;;
18316;SDS011;9284;52.298;21.164;2023-12-20T04:49:27;22.13;;;11.60;;
18316;SDS011;9284;52.298;21.164;2023-12-20T04:51:56;22.45;;;12.27;;
18316;SDS011;9284;52.298;21.164;2023-12-20T04:54:24;25.35;;;12.93;;
18316;SDS011;9284;52.298;21.164;2023-12-20T04:56:54;25.83;;;13.13;;
18316;SDS011;9284;52.298;21.164;2023-12-20T04:59:22;20.40;;;12.15;;
18316;SDS011;9284;52.298;21.164;2023-12-20T05:01:50;20.85;;;11.82;;
18316;SDS011;9284;52.298;21.164;2023-12-20T05:04:19;19.65;;;11.32;;
18316;SDS011;9284;52.298;21.164;2023-12-20T05:06:47;21.38;;;12.07;;
18316;SDS011;9284;52.298;21.164;2023-12-20T05:09:16;20.27;;;12.20;;
18316;SDS011;9284;52.298;21.164;2023-12-20T05:11:44;18.38;;;11.05;;
18316;SDS011;9284;52.298;21.164;2023-12-20T05:14:14;21.75;;;11.88;;
18316;SDS011;9284;52.298;21.164;2023-12-20T05:16:43;19.67;;;11.40;;
18316;SDS011;9284;52.298;21.164;2023-12-20T05:19:11;19.33;;;12.30;;
18316;SDS011;9284;52.298;21.164;2023-12-20T05:21:40;21.25;;;12.27;;
18316;SDS011;9284;52.298;21.164;2023-12-20T05:24:09;20.42;;;11.80;;
18316;SDS011;9284;52.298;21.164;2023-12-20T05:26:37;26.15;;;12.95;;
18316;SDS011;9284;52.298;21.164;2023-12-20T05:29:05;29.63;;;14.27;;
18316;SDS011;9284;52.298;21.164;2023-12-20T05:31:35;32.05;;;13.80;;
18316;SDS011;9284;52.298;21.164;2023-12-20T05:34:03;29.35;;;13.27;;
18316;SDS011;9284;52.298;21.164;2023-12-20T05:36:32;24.98;;;12.27;;
18316;SDS011;9284;52.298;21.164;2023-12-20T05:39:00;22.75;;;12.27;;
18316;SDS011;9284;52.298;21.164;2023-12-20T05:41:30;22.45;;;12.40;;
18316;SDS011;9284;52.298;21.164;2023-12-20T05:43:58;22.60;;;11.48;;
18316;SDS011;9284;52.298;21.164;2023-12-20T05:46:26;18.52;;;10.52;;
18316;SDS011;9284;52.298;21.164;2023-12-20T05:48:56;20.98;;;11.38;;
18316;SDS011;9284;52.298;21.164;2023-12-20T05:51:24;21.92;;;12.43;;
18316;SDS011;9284;52.298;21.164;2023-12-20T05:53:53;22.08;;;10.98;;
18316;SDS011;9284;52.298;21.164;2023-12-20T05:56:21;23.15;;;12.25;;
18316;SDS011;9284;52.298;21.164;2023-12-20T05:58:49;22.67;;;11.70;;
18316;SDS011;9284;52.298;21.164;2023-12-20T06:01:18;24.83;;;12.82;;
18316;SDS011;9284;52.298;21.164;2023-12-20T06:03:46;24.20;;;12.13;;
18316;SDS011;9284;52.298;21.164;2023-12-20T06:06:16;23.63;;;12.55;;
18316;SDS011;9284;52.298;21.164;2023-12-20T06:08:45;24.45;;;12.35;;
18316;SDS011;9284;52.298;21.164;2023-12-20T06:11:13;26.27;;;12.73;;
18316;SDS011;9284;52.298;21.164;2023-12-20T06:13:41;24.73;;;11.90;;
18316;SDS011;9284;52.298;21.164;2023-12-20T06:16:10;25.33;;;13.00;;
18316;SDS011;9284;52.298;21.164;2023-12-20T06:18:38;28.30;;;14.25;;
18316;SDS011;9284;52.298;21.164;2023-12-20T06:21:06;46.53;;;20.17;;
18316;SDS011;9284;52.298;21.164;2023-12-20T06:23:40;44.92;;;21.20;;
18316;SDS011;9284;52.298;21.164;2023-12-20T06:26:08;33.80;;;16.02;;
18316;SDS011;9284;52.298;21.164;2023-12-20T06:28:37;28.80;;;14.50;;
18316;SDS011;9284;52.298;21.164;2023-12-20T06:31:07;27.92;;;14.32;;
18316;SDS011;9284;52.298;21.164;2023-12-20T06:33:36;28.23;;;14.35;;
18316;SDS011;9284;52.298;21.164;2023-12-20T06:36:07;28.50;;;15.35;;
18316;SDS011;9284;52.298;21.164;2023-12-20T06:38:35;24.65;;;13.73;;
18316;SDS011;9284;52.298;21.164;2023-12-20T06:41:05;28.05;;;13.57;;
18316;SDS011;9284;52.298;21.164;2023-12-20T06:43:33;31.40;;;14.77;;
18316;SDS011;9284;52.298;21.164;2023-12-20T06:46:15;26.92;;;13.10;;
18316;SDS011;9284;52.298;21.164;2023-12-20T06:48:44;26.80;;;13.10;;
18316;SDS011;9284;52.298;21.164;2023-12-20T06:51:13;32.15;;;14.85;;
18316;SDS011;9284;52.298;21.164;2023-12-20T06:53:43;31.98;;;14.63;;
18316;SDS011;9284;52.298;21.164;2023-12-20T06:56:13;25.98;;;13.07;;
18316;SDS011;9284;52.298;21.164;2023-12-20T06:58:44;24.90;;;12.15;;
18316;SDS011;9284;52.298;21.164;2023-12-20T07:01:14;24.13;;;12.32;;
18316;SDS011;9284;52.298;21.164;2023-12-20T07:03:43;25.92;;;13.13;;
18316;SDS011;9284;52.298;21.164;2023-12-20T07:06:11;32.88;;;14.65;;
18316;SDS011;9284;52.298;21.164;2023-12-20T07:08:40;28.52;;;13.55;;
18316;SDS011;9284;52.298;21.164;2023-12-20T07:11:08;22.48;;;12.15;;
18316;SDS011;9284;52.298;21.164;2023-12-20T07:13:38;27.92;;;13.07;;
18316;SDS011;9284;52.298;21.164;2023-12-20T07:16:06;29.23;;;14.15;;
18316;SDS011;9284;52.298;21.164;2023-12-20T07:18:34;26.60;;;12.88;;
18316;SDS011;9284;52.298;21.164;2023-12-20T07:21:03;24.83;;;11.93;;
18316;SDS011;9284;52.298;21.164;2023-12-20T07:23:32;24.65;;;12.23;;
18316;SDS011;9284;52.298;21.164;2023-12-20T07:26:00;25.58;;;12.48;;
18316;SDS011;9284;52.298;21.164;2023-12-20T07:28:28;24.17;;;11.82;;
18316;SDS011;9284;52.298;21.164;2023-12-20T07:30:58;24.23;;;12.20;;
18316;SDS011;9284;52.298;21.164;2023-12-20T07:33:26;22.83;;;11.13;;
18316;SDS011;9284;52.298;21.164;2023-12-20T07:35:56;18.70;;;9.80;;
18316;SDS011;9284;52.298;21.164;2023-12-20T07:38:24;20.30;;;10.65;;
18316;SDS011;9284;52.298;21.164;2023-12-20T07:40:53;21.40;;;11.05;;
18316;SDS011;9284;52.298;21.164;2023-12-20T07:43:21;23.50;;;12.10;;
18316;SDS011;9284;52.298;21.164;2023-12-20T07:45:49;22.48;;;11.88;;
18316;SDS011;9284;52.298;21.164;2023-12-20T07:48:19;25.13;;;11.93;;
18316;SDS011;9284;52.298;21.164;2023-12-20T07:50:47;23.45;;;12.40;;
18316;SDS011;9284;52.298;21.164;2023-12-20T07:53:15;23.63;;;12.30;;
18316;SDS011;9284;52.298;21.164;2023-12-20T07:55:43;22.08;;;12.70;;
18316;SDS011;9284;52.298;21.164;2023-12-20T07:58:12;23.35;;;12.23;;
18316;SDS011;9284;52.298;21.164;2023-12-20T08:00:40;24.15;;;11.85;;
18316;SDS011;9284;52.298;21.164;2023-12-20T08:03:08;22.92;;;11.70;;
18316;SDS011;9284;52.298;21.164;2023-12-20T08:05:38;23.13;;;13.27;;
18316;SDS011;9284;52.298;21.164;2023-12-20T08:08:06;22.05;;;11.93;;
18316;SDS011;9284;52.298;21.164;2023-12-20T08:10:35;22.65;;;11.82;;
18316;SDS011;9284;52.298;21.164;2023-12-20T08:13:03;25.48;;;12.48;;
18316;SDS011;9284;52.298;21.164;2023-12-20T08:15:34;26.17;;;13.35;;
18316;SDS011;9284;52.298;21.164;2023-12-20T08:18:02;22.92;;;12.02;;
18316;SDS011;9284;52.298;21.164;2023-12-20T08:20:31;23.65;;;12.75;;
18316;SDS011;9284;52.298;21.164;2023-12-20T08:23:07;21.92;;;11.63;;
18316;SDS011;9284;52.298;21.164;2023-12-20T08:25:36;22.65;;;12.20;;
18316;SDS011;9284;52.298;21.164;2023-12-20T08:28:04;23.58;;;11.80;;
18316;SDS011;9284;52.298;21.164;2023-12-20T08:30:33;23.92;;;12.55;;
18316;SDS011;9284;52.298;21.164;2023-12-20T08:33:01;20.17;;;11.40;;
18316;SDS011;9284;52.298;21.164;2023-12-20T08:35:30;27.58;;;11.50;;
18316;SDS011;9284;52.298;21.164;2023-12-20T08:37:58;20.33;;;10.00;;
18316;SDS011;9284;52.298;21.164;2023-12-20T08:40:28;20.60;;;9.93;;
18316;SDS011;9284;52.298;21.164;2023-12-20T08:42:56;22.95;;;10.80;;
18316;SDS011;9284;52.298;21.164;2023-12-20T08:45:24;20.02;;;10.50;;
18316;SDS011;9284;52.298;21.164;2023-12-20T08:47:53;18.80;;;10.65;;
18316;SDS011;9284;52.298;21.164;2023-12-20T08:50:25;20.05;;;10.30;;
18316;SDS011;9284;52.298;21.164;2023-12-20T08:52:53;21.02;;;12.20;;
18316;SDS011;9284;52.298;21.164;2023-12-20T08:55:21;28.20;;;12.60;;
18316;SDS011;9284;52.298;21.164;2023-12-20T08:57:51;20.83;;;10.10;;
18316;SDS011;9284;52.298;21.164;2023-12-20T09:00:19;19.63;;;10.27;;
18316;SDS011;9284;52.298;21.164;2023-12-20T09:02:50;18.77;;;9.73;;
18316;SDS011;9284;52.298;21.164;2023-12-20T09:05:19;20.95;;;10.48;;
18316;SDS011;9284;52.298;21.164;2023-12-20T09:07:47;21.92;;;10.00;;
18316;SDS011;9284;52.298;21.164;2023-12-20T09:10:16;20.63;;;11.18;;
18316;SDS011;9284;52.298;21.164;2023-12-20T09:12:49;20.60;;;10.13;;
18316;SDS011;9284;52.298;21.164;2023-12-20T09:15:19;18.65;;;10.00;;
18316;SDS011;9284;52.298;21.164;2023-12-20T09:17:47;17.27;;;9.68;;
18316;SDS011;9284;52.298;21.164;2023-12-20T09:20:16;20.52;;;10.55;;
18316;SDS011;9284;52.298;21.164;2023-12-20T09:22:45;23.92;;;12.73;;
18316;SDS011;9284;52.298;21.164;2023-12-20T09:25:14;17.23;;;9.25;;
18316;SDS011;9284;52.298;21.164;2023-12-20T09:27:44;19.02;;;9.80;;
18316;SDS011;9284;52.298;21.164;2023-12-20T09:30:13;14.55;;;7.88;;
18316;SDS011;9284;52.298;21.164;2023-12-20T09:32:54;15.38;;;8.77;;
18316;SDS011;9284;52.298;21.164;2023-12-20T09:35:22;19.92;;;8.68;;
18316;SDS011;9284;52.298;21.164;2023-12-20T09:37:53;13.77;;;7.95;;
18316;SDS011;9284;52.298;21.164;2023-12-20T09:40:21;16.63;;;8.00;;
18316;SDS011;9284;52.298;21.164;2023-12-20T09:42:55;13.05;;;7.97;;
18316;SDS011;9284;52.298;21.164;2023-12-20T09:45:25;16.20;;;7.95;;
18316;SDS011;9284;52.298;21.164;2023-12-20T09:47:55;17.13;;;9.00;;
18316;SDS011;9284;52.298;21.164;2023-12-20T09:50:25;17.77;;;9.20;;
18316;SDS011;9284;52.298;21.164;2023-12-20T09:52:54;15.15;;;8.40;;
18316;SDS011;9284;52.298;21.164;2023-12-20T09:55:26;15.65;;;9.13;;
18316;SDS011;9284;52.298;21.164;2023-12-20T09:57:56;15.90;;;9.45;;
18316;SDS011;9284;52.298;21.164;2023-12-20T10:00:24;16.80;;;8.90;;
18316;SDS011;9284;52.298;21.164;2023-12-20T10:02:55;15.15;;;8.45;;
18316;SDS011;9284;52.298;21.164;2023-12-20T10:05:26;16.15;;;10.02;;
18316;SDS011;9284;52.298;21.164;2023-12-20T10:07:56;18.08;;;10.07;;
18316;SDS011;9284;52.298;21.164;2023-12-20T10:10:26;16.23;;;8.88;;
18316;SDS011;9284;52.298;21.164;2023-12-20T10:13:10;17.05;;;9.60;;
18316;SDS011;9284;52.298;21.164;2023-12-20T10:15:40;16.48;;;9.88;;
18316;SDS011;9284;52.298;21.164;2023-12-20T10:18:11;19.33;;;9.68;;
18316;SDS011;9284;52.298;21.164;2023-12-20T10:20:40;17.63;;;9.80;;
18316;SDS011;9284;52.298;21.164;2023-12-20T10:23:10;19.70;;;10.63;;
18316;SDS011;9284;52.298;21.164;2023-12-20T10:25:40;17.92;;;9.55;;
18316;SDS011;9284;52.298;21.164;2023-12-20T10:28:09;19.17;;;10.88;;
18316;SDS011;9284;52.298;21.164;2023-12-20T10:30:39;16.85;;;9.20;;
18316;SDS011;9284;52.298;21.164;2023-12-20T10:33:10;19.25;;;9.95;;
18316;SDS011;9284;52.298;21.164;2023-12-20T10:35:39;15.48;;;9.30;;
18316;SDS011;9284;52.298;21.164;2023-12-20T10:38:12;19.48;;;9.05;;
18316;SDS011;9284;52.298;21.164;2023-12-20T10:40:42;19.52;;;10.48;;
18316;SDS011;9284;52.298;21.164;2023-12-20T10:43:13;16.83;;;8.85;;
18316;SDS011;9284;52.298;21.164;2023-12-20T10:45:43;15.15;;;8.75;;
18316;SDS011;9284;52.298;21.164;2023-12-20T10:48:12;15.15;;;8.52;;
18316;SDS011;9284;52.298;21.164;2023-12-20T10:50:41;16.52;;;8.02;;
18316;SDS011;9284;52.298;21.164;2023-12-20T10:53:10;15.98;;;8.93;;
18316;SDS011;9284;52.298;21.164;2023-12-20T10:55:40;16.08;;;9.70;;
18316;SDS011;9284;52.298;21.164;2023-12-20T10:58:10;16.33;;;9.57;;
18316;SDS011;9284;52.298;21.164;2023-12-20T11:00:40;17.95;;;9.80;;
18316;SDS011;9284;52.298;21.164;2023-12-20T11:03:09;15.25;;;9.48;;
18316;SDS011;9284;52.298;21.164;2023-12-20T11:05:42;18.92;;;10.13;;
18316;SDS011;9284;52.298;21.164;2023-12-20T11:08:17;17.58;;;10.20;;
18316;SDS011;9284;52.298;21.164;2023-12-20T11:10:54;16.75;;;9.70;;
18316;SDS011;9284;52.298;21.164;2023-12-20T11:13:28;17.50;;;10.00;;
18316;SDS011;9284;52.298;21.164;2023-12-20T11:16:00;19.30;;;10.35;;
18316;SDS011;9284;52.298;21.164;2023-12-20T11:18:31;21.98;;;11.70;;
18316;SDS011;9284;52.298;21.164;2023-12-20T11:21:00;21.38;;;11.68;;
18316;SDS011;9284;52.298;21.164;2023-12-20T11:23:29;17.88;;;10.32;;
18316;SDS011;9284;52.298;21.164;2023-12-20T11:25:59;20.65;;;12.10;;
18316;SDS011;9284;52.298;21.164;2023-12-20T11:28:29;20.40;;;11.75;;
18316;SDS011;9284;52.298;21.164;2023-12-20T11:30:57;21.38;;;11.68;;
18316;SDS011;9284;52.298;21.164;2023-12-20T11:33:31;27.67;;;13.63;;
18316;SDS011;9284;52.298;21.164;2023-12-20T11:36:03;19.13;;;10.45;;
18316;SDS011;9284;52.298;21.164;2023-12-20T11:38:50;20.40;;;10.07;;
18316;SDS011;9284;52.298;21.164;2023-12-20T11:41:23;17.90;;;9.82;;
18316;SDS011;9284;52.298;21.164;2023-12-20T11:43:52;22.13;;;10.55;;
18316;SDS011;9284;52.298;21.164;2023-12-20T11:46:21;15.70;;;9.35;;
18316;SDS011;9284;52.298;21.164;2023-12-20T11:48:51;23.15;;;12.90;;
18316;SDS011;9284;52.298;21.164;2023-12-20T11:51:20;22.38;;;11.25;;
18316;SDS011;9284;52.298;21.164;2023-12-20T11:53:51;16.35;;;9.32;;
18316;SDS011;9284;52.298;21.164;2023-12-20T11:56:19;18.65;;;9.90;;
18316;SDS011;9284;52.298;21.164;2023-12-20T11:58:48;15.60;;;9.48;;
18316;SDS011;9284;52.298;21.164;2023-12-20T12:01:17;16.17;;;9.20;;
18316;SDS011;9284;52.298;21.164;2023-12-20T12:03:48;15.10;;;8.70;;
18316;SDS011;9284;52.298;21.164;2023-12-20T12:06:17;19.85;;;9.82;;
18316;SDS011;9284;52.298;21.164;2023-12-20T12:08:46;16.02;;;9.73;;
18316;SDS011;9284;52.298;21.164;2023-12-20T12:11:14;15.88;;;8.98;;
18316;SDS011;9284;52.298;21.164;2023-12-20T12:13:42;15.80;;;8.88;;
18316;SDS011;9284;52.298;21.164;2023-12-20T12:16:10;14.35;;;8.45;;
18316;SDS011;9284;52.298;21.164;2023-12-20T12:18:39;14.57;;;8.80;;
18316;SDS011;9284;52.298;21.164;2023-12-20T12:21:08;20.13;;;9.82;;
18316;SDS011;9284;52.298;21.164;2023-12-20T12:23:45;15.40;;;8.38;;
18316;SDS011;9284;52.298;21.164;2023-12-20T12:26:14;15.63;;;9.10;;
18316;SDS011;9284;52.298;21.164;2023-12-20T12:28:42;14.57;;;8.65;;
18316;SDS011;9284;52.298;21.164;2023-12-20T12:31:13;13.68;;;8.00;;
18316;SDS011;9284;52.298;21.164;2023-12-20T12:33:42;13.77;;;8.43;;
18316;SDS011;9284;52.298;21.164;2023-12-20T12:36:12;16.90;;;8.70;;
18316;SDS011;9284;52.298;21.164;2023-12-20T12:38:42;14.88;;;8.65;;
18316;SDS011;9284;52.298;21.164;2023-12-20T12:41:13;15.73;;;9.02;;
18316;SDS011;9284;52.298;21.164;2023-12-20T12:43:42;13.25;;;6.68;;
18316;SDS011;9284;52.298;21.164;2023-12-20T12:46:11;15.48;;;8.52;;
18316;SDS011;9284;52.298;21.164;2023-12-20T12:48:39;15.07;;;7.70;;
18316;SDS011;9284;52.298;21.164;2023-12-20T12:51:11;12.10;;;7.70;;
18316;SDS011;9284;52.298;21.164;2023-12-20T12:53:40;15.32;;;8.30;;
18316;SDS011;9284;52.298;21.164;2023-12-20T12:56:08;14.35;;;8.35;;
18316;SDS011;9284;52.298;21.164;2023-12-20T12:58:38;16.20;;;9.23;;
18316;SDS011;9284;52.298;21.164;2023-12-20T13:01:07;22.42;;;11.75;;
18316;SDS011;9284;52.298;21.164;2023-12-20T13:03:35;20.73;;;11.85;;
18316;SDS011;9284;52.298;21.164;2023-12-20T13:06:04;23.63;;;11.73;;
18316;SDS011;9284;52.298;21.164;2023-12-20T13:08:35;23.90;;;12.40;;
18316;SDS011;9284;52.298;21.164;2023-12-20T13:11:03;24.75;;;12.18;;
18316;SDS011;9284;52.298;21.164;2023-12-20T13:13:32;24.67;;;12.88;;
18316;SDS011;9284;52.298;21.164;2023-12-20T13:16:02;27.48;;;12.77;;
18316;SDS011;9284;52.298;21.164;2023-12-20T13:18:31;21.63;;;11.85;;
18316;SDS011;9284;52.298;21.164;2023-12-20T13:20:59;23.30;;;11.50;;
18316;SDS011;9284;52.298;21.164;2023-12-20T13:23:27;19.73;;;11.38;;
18316;SDS011;9284;52.298;21.164;2023-12-20T13:25:56;22.80;;;11.50;;
18316;SDS011;9284;52.298;21.164;2023-12-20T13:28:24;21.13;;;11.75;;
18316;SDS011;9284;52.298;21.164;2023-12-20T13:30:52;21.40;;;11.20;;
18316;SDS011;9284;52.298;21.164;2023-12-20T13:33:22;20.48;;;10.98;;
18316;SDS011;9284;52.298;21.164;2023-12-20T13:35:51;23.17;;;11.70;;
18316;SDS011;9284;52.298;21.164;2023-12-20T13:38:19;28.15;;;12.45;;
18316;SDS011;9284;52.298;21.164;2023-12-20T13:40:48;24.45;;;13.02;;
18316;SDS011;9284;52.298;21.164;2023-12-20T13:43:16;27.50;;;13.68;;
18316;SDS011;9284;52.298;21.164;2023-12-20T13:45:48;27.40;;;13.90;;
18316;SDS011;9284;52.298;21.164;2023-12-20T13:48:16;30.20;;;14.40;;
18316;SDS011;9284;52.298;21.164;2023-12-20T13:50:47;27.88;;;14.52;;
18316;SDS011;9284;52.298;21.164;2023-12-20T13:53:15;28.15;;;14.95;;
18316;SDS011;9284;52.298;21.164;2023-12-20T13:55:43;36.22;;;17.45;;
18316;SDS011;9284;52.298;21.164;2023-12-20T13:58:12;31.42;;;17.52;;
18316;SDS011;9284;52.298;21.164;2023-12-20T14:00:40;33.03;;;17.92;;
18316;SDS011;9284;52.298;21.164;2023-12-20T14:03:08;38.22;;;20.15;;
18316;SDS011;9284;52.298;21.164;2023-12-20T14:05:36;39.75;;;18.30;;
18316;SDS011;9284;52.298;21.164;2023-12-20T14:08:06;30.90;;;15.43;;
18316;SDS011;9284;52.298;21.164;2023-12-20T14:10:36;28.10;;;14.20;;
18316;SDS011;9284;52.298;21.164;2023-12-20T14:13:05;27.23;;;13.98;;
18316;SDS011;9284;52.298;21.164;2023-12-20T14:15:33;31.77;;;15.15;;
18316;SDS011;9284;52.298;21.164;2023-12-20T14:18:04;30.23;;;14.65;;
18316;SDS011;9284;52.298;21.164;2023-12-20T14:20:37;37.38;;;17.05;;
18316;SDS011;9284;52.298;21.164;2023-12-20T14:23:14;31.00;;;16.30;;
18316;SDS011;9284;52.298;21.164;2023-12-20T14:25:43;32.95;;;16.58;;
18316;SDS011;9284;52.298;21.164;2023-12-20T14:28:18;30.27;;;15.07;;
18316;SDS011;9284;52.298;21.164;2023-12-20T14:30:47;28.67;;;15.77;;
18316;SDS011;9284;52.298;21.164;2023-12-20T14:33:16;28.60;;;14.85;;
18316;SDS011;9284;52.298;21.164;2023-12-20T14:35:47;26.85;;;13.65;;